createdAt,value
2023-03-25T00:02:30.348Z,45.76
2023-03-25T00:04:57.480Z,45.77
2023-03-25T00:07:24.729Z,45.62
2023-03-25T00:09:51.536Z,46.01
2023-03-25T00:12:19.700Z,45.80
2023-03-25T00:14:55.379Z,45.71
2023-03-25T00:17:23.151Z,45.95
2023-03-25T00:19:50.657Z,45.92
2023-03-25T00:22:18.591Z,45.97
2023-03-25T00:24:45.451Z,46.15
2023-03-25T00:27:14.397Z,45.88
2023-03-25T00:29:42.217Z,45.98
2023-03-25T00:32:10.032Z,46.05
2023-03-25T00:34:41.861Z,46.17
2023-03-25T00:37:09.392Z,46.07
2023-03-25T00:39:39.309Z,45.94
2023-03-25T00:42:06.425Z,46.19
2023-03-25T00:44:33.124Z,46.02
2023-03-25T00:47:00.245Z,45.96
2023-03-25T00:49:28.816Z,46.37
2023-03-25T00:51:56.581Z,45.96
2023-03-25T00:54:23.675Z,46.27
2023-03-25T00:56:52.153Z,45.97
2023-03-25T00:59:19.095Z,46.33
2023-03-25T01:01:46.267Z,46.06
2023-03-25T01:04:13.206Z,46.23
2023-03-25T01:06:51.737Z,46.12
2023-03-25T01:09:19.271Z,46.32
2023-03-25T01:11:46.610Z,46.14
2023-03-25T01:14:18.378Z,46.13
2023-03-25T01:16:45.774Z,46.13
2023-03-25T01:19:12.949Z,46.28
2023-03-25T01:21:40.255Z,46.14
2023-03-25T01:24:07.693Z,45.68
2023-03-25T01:26:34.775Z,46.13
2023-03-25T01:29:01.834Z,46.13
2023-03-25T01:31:30.583Z,46.02
2023-03-25T01:33:58.004Z,46.03
2023-03-25T01:36:25.810Z,46.09
2023-03-25T01:38:52.622Z,45.89
2023-03-25T01:41:19.704Z,45.99
2023-03-25T01:44:04.732Z,45.90
2023-03-25T01:46:31.858Z,45.94
2023-03-25T01:48:59.932Z,45.99
2023-03-25T01:51:32.589Z,46.07
2023-03-25T01:53:59.566Z,45.82
2023-03-25T01:56:30.793Z,45.99
2023-03-25T01:58:59.522Z,45.90
2023-03-25T02:01:26.772Z,45.83
2023-03-25T02:03:54.135Z,45.69
2023-03-25T02:06:36.252Z,46.14
2023-03-25T02:09:05.218Z,45.72
2023-03-25T02:11:33.387Z,45.99
2023-03-25T02:14:08.097Z,45.78
2023-03-25T02:16:53.971Z,45.77
2023-03-25T02:19:40.951Z,45.92
2023-03-25T02:22:38.034Z,45.92
2023-03-25T02:25:19.257Z,45.84
2023-03-25T02:28:01.372Z,45.99
2023-03-25T02:31:01.895Z,46.03
2023-03-25T02:33:38.034Z,45.76
2023-03-25T02:36:23.187Z,45.92
2023-03-25T02:38:52.626Z,45.71
2023-03-25T02:41:24.016Z,45.88
2023-03-25T02:44:01.770Z,45.96
2023-03-25T02:46:28.546Z,45.97
2023-03-25T02:49:01.263Z,45.74
2023-03-25T02:51:33.166Z,46.13
2023-03-25T02:54:03.421Z,46.09
2023-03-25T02:56:33.011Z,45.70
2023-03-25T02:59:00.478Z,45.86
2023-03-25T03:01:27.312Z,45.81
2023-03-25T03:03:54.951Z,45.72
2023-03-25T03:06:22.088Z,46.09
2023-03-25T03:08:49.131Z,45.76
2023-03-25T03:11:46.522Z,45.72
2023-03-25T03:14:32.459Z,45.67
2023-03-25T03:17:03.544Z,45.85
2023-03-25T03:19:38.859Z,45.81
2023-03-25T03:22:25.807Z,45.93
2023-03-25T03:25:03.220Z,45.76
2023-03-25T03:27:47.023Z,45.98
2023-03-25T03:30:20.189Z,45.71
2023-03-25T03:32:54.011Z,45.81
2023-03-25T03:35:26.393Z,45.80
2023-03-25T03:37:57.538Z,45.87
2023-03-25T03:40:24.743Z,45.68
2023-03-25T03:43:03.313Z,45.75
2023-03-25T03:45:41.602Z,45.93
2023-03-25T03:48:14.608Z,45.96
2023-03-25T03:50:48.825Z,45.84
2023-03-25T03:53:21.026Z,45.87
2023-03-25T03:55:51.895Z,45.93
2023-03-25T03:58:28.516Z,45.68
2023-03-25T04:01:14.270Z,45.84
2023-03-25T04:03:58.412Z,45.71
2023-03-25T04:06:35.537Z,46.04
2023-03-25T04:09:18.563Z,45.93
2023-03-25T04:11:52.864Z,45.99
2023-03-25T04:14:19.637Z,45.94
2023-03-25T04:16:46.746Z,46.14
2023-03-25T04:19:19.286Z,45.98
2023-03-25T04:21:48.034Z,46.10
2023-03-25T04:24:16.678Z,46.08
2023-03-25T04:26:43.877Z,45.97
2023-03-25T04:29:10.659Z,45.91
2023-03-25T04:31:37.925Z,46.03
2023-03-25T04:34:04.810Z,45.92
2023-03-25T04:36:38.142Z,45.85
2023-03-25T04:39:05.142Z,45.83
2023-03-25T04:41:33.637Z,46.00
2023-03-25T04:44:00.492Z,45.84
2023-03-25T04:46:27.544Z,45.85
2023-03-25T04:48:57.000Z,45.78
2023-03-25T04:51:24.269Z,45.95
2023-03-25T04:53:51.061Z,46.19
2023-03-25T04:56:18.593Z,46.12
2023-03-25T04:58:45.555Z,46.12
2023-03-25T05:01:31.132Z,46.14
2023-03-25T05:04:05.113Z,46.21
2023-03-25T05:06:33.586Z,46.14
2023-03-25T05:09:04.472Z,46.22
2023-03-25T05:11:32.296Z,46.06
2023-03-25T05:13:59.036Z,46.11
2023-03-25T05:16:26.712Z,45.96
2023-03-25T05:18:53.578Z,46.11
2023-03-25T05:21:21.716Z,46.02
2023-03-25T05:23:48.594Z,45.96
2023-03-25T05:26:15.730Z,45.96
2023-03-25T05:28:42.486Z,46.09
2023-03-25T05:31:09.642Z,45.89
2023-03-25T05:33:42.707Z,46.25
2023-03-25T05:36:11.300Z,46.20
2023-03-25T05:38:41.649Z,45.98
2023-03-25T05:41:16.941Z,46.13
2023-03-25T05:43:48.159Z,46.18
2023-03-25T05:46:15.609Z,46.08
2023-03-25T05:48:42.950Z,46.23
2023-03-25T05:51:17.533Z,46.20
2023-03-25T05:53:45.504Z,46.03
2023-03-25T05:56:12.634Z,46.09
2023-03-25T05:58:39.461Z,46.28
2023-03-25T06:01:09.294Z,46.09
2023-03-25T06:03:41.932Z,46.28
2023-03-25T06:06:14.128Z,46.14
2023-03-25T06:08:41.412Z,46.31
2023-03-25T06:11:09.300Z,46.15
2023-03-25T06:13:38.210Z,45.96
2023-03-25T06:16:06.291Z,46.01
2023-03-25T06:18:33.097Z,46.05
2023-03-25T06:21:00.271Z,45.97
2023-03-25T06:23:27.924Z,45.77
2023-03-25T06:25:55.896Z,46.04
2023-03-25T06:28:23.712Z,46.04
2023-03-25T06:30:50.762Z,45.77
2023-03-25T06:33:43.100Z,45.98
2023-03-25T06:36:08.087Z,45.80
2023-03-25T06:38:34.951Z,46.27
2023-03-25T06:41:02.230Z,45.99
2023-03-25T06:43:29.087Z,46.19
2023-03-25T06:45:56.171Z,45.88
2023-03-25T06:48:22.936Z,46.02
2023-03-25T06:50:50.032Z,45.99
2023-03-25T06:53:16.831Z,45.84
2023-03-25T06:55:44.938Z,45.97
2023-03-25T06:58:11.752Z,46.06
2023-03-25T07:00:38.851Z,46.02
2023-03-25T07:03:05.800Z,46.28
2023-03-25T07:05:32.916Z,46.01
2023-03-25T07:07:59.678Z,45.89
2023-03-25T07:10:26.871Z,45.97
2023-03-25T07:12:53.838Z,46.10
2023-03-25T07:15:20.934Z,46.04
2023-03-25T07:17:49.440Z,46.04
2023-03-25T07:20:17.105Z,46.05
2023-03-25T07:22:44.092Z,45.94
2023-03-25T07:25:11.326Z,46.04
2023-03-25T07:27:38.121Z,45.88
2023-03-25T07:30:07.194Z,46.15
2023-03-25T07:32:33.974Z,46.19
2023-03-25T07:35:01.113Z,45.99
2023-03-25T07:37:27.894Z,46.14
2023-03-25T07:39:54.916Z,46.08
2023-03-25T07:42:21.693Z,45.80
2023-03-25T07:44:48.739Z,45.86
2023-03-25T07:47:15.761Z,45.93
2023-03-25T07:49:42.876Z,45.78
2023-03-25T07:52:09.624Z,45.63
2023-03-25T07:54:38.297Z,45.38
2023-03-25T07:57:05.146Z,45.64
2023-03-25T07:59:32.245Z,45.48
2023-03-25T08:01:59.149Z,45.52
2023-03-25T08:04:26.415Z,45.55
2023-03-25T08:06:53.170Z,45.56
2023-03-25T08:09:20.283Z,45.41
2023-03-25T08:11:48.047Z,45.45
2023-03-25T08:14:15.376Z,44.85
2023-03-25T08:16:42.180Z,44.97
2023-03-25T08:19:09.465Z,44.84
2023-03-25T08:21:36.223Z,44.95
2023-03-25T08:24:04.860Z,44.86
2023-03-25T08:26:33.711Z,44.77
2023-03-25T08:29:02.625Z,44.50
2023-03-25T08:31:32.589Z,44.43
2023-03-25T08:34:00.268Z,44.43
2023-03-25T08:36:27.795Z,44.52
2023-03-25T08:38:54.887Z,44.55
2023-03-25T08:41:21.694Z,44.60
2023-03-25T08:43:49.215Z,44.57
2023-03-25T08:46:16.374Z,44.33
2023-03-25T08:48:44.572Z,44.40
2023-03-25T08:51:11.366Z,44.16
2023-03-25T08:53:38.484Z,43.77
2023-03-25T08:56:05.928Z,43.84
2023-03-25T08:58:32.977Z,43.41
2023-03-25T09:00:59.779Z,43.19
2023-03-25T09:03:29.816Z,43.36
2023-03-25T09:05:56.584Z,42.71
2023-03-25T09:08:23.662Z,42.58
2023-03-25T09:10:50.614Z,42.66
2023-03-25T09:13:17.762Z,42.75
2023-03-25T09:15:45.686Z,42.48
2023-03-25T09:18:12.833Z,42.45
2023-03-25T09:20:39.773Z,42.25
2023-03-25T09:23:06.966Z,41.86
2023-03-25T09:25:34.368Z,41.97
2023-03-25T09:28:01.624Z,41.94
2023-03-25T09:30:28.377Z,41.74
2023-03-25T09:32:55.560Z,41.52
2023-03-25T09:35:22.508Z,41.09
2023-03-25T09:37:51.894Z,41.44
2023-03-25T09:40:19.332Z,40.83
2023-03-25T09:42:49.408Z,40.98
2023-03-25T09:45:25.294Z,41.03
2023-03-25T09:48:01.445Z,41.18
2023-03-25T09:50:29.839Z,40.45
2023-03-25T09:53:15.910Z,40.35
2023-03-25T09:55:43.927Z,40.29
2023-03-25T09:58:35.945Z,40.13
2023-03-25T10:01:35.003Z,39.88
2023-03-25T10:04:02.042Z,40.23
2023-03-25T10:06:31.137Z,39.78
2023-03-25T10:09:23.318Z,39.86
2023-03-25T10:12:05.697Z,39.56
2023-03-25T10:14:51.110Z,39.72
2023-03-25T10:17:40.656Z,39.10
2023-03-25T10:21:15.488Z,39.46
2023-03-25T10:23:43.889Z,38.77
2023-03-25T10:26:16.784Z,38.73
2023-03-25T10:28:49.153Z,38.69
2023-03-25T10:31:17.433Z,38.33
2023-03-25T10:34:05.720Z,38.18
2023-03-25T10:36:42.008Z,38.30
2023-03-25T10:39:15.176Z,38.12
2023-03-25T10:41:43.512Z,38.65
2023-03-25T10:44:10.756Z,38.27
2023-03-25T10:46:49.358Z,37.93
2023-03-25T10:49:18.742Z,37.89
2023-03-25T10:51:45.798Z,37.71
2023-03-25T10:54:12.889Z,37.91
2023-03-25T10:56:48.217Z,37.48
2023-03-25T10:59:20.027Z,37.90
2023-03-25T11:01:47.063Z,37.76
2023-03-25T11:04:17.219Z,37.54
2023-03-25T11:06:49.155Z,37.69
2023-03-25T11:09:24.012Z,37.72
2023-03-25T11:11:51.088Z,37.93
2023-03-25T11:14:22.972Z,37.67
2023-03-25T11:17:16.723Z,37.37
2023-03-25T11:19:59.515Z,37.79
2023-03-25T11:22:30.933Z,37.52
2023-03-25T11:25:06.518Z,37.72
2023-03-25T11:27:40.563Z,37.59
2023-03-25T11:30:08.676Z,37.56
2023-03-25T11:32:37.966Z,37.16
2023-03-25T11:35:14.759Z,37.20
2023-03-25T11:37:54.586Z,37.46
2023-03-25T11:40:21.705Z,37.54
2023-03-25T11:42:59.074Z,37.00
2023-03-25T11:45:38.889Z,37.21
2023-03-25T11:48:15.761Z,37.51
2023-03-25T11:50:58.925Z,37.24
2023-03-25T11:53:27.034Z,37.14
2023-03-25T11:56:04.496Z,37.23
2023-03-25T11:58:33.552Z,37.26
2023-03-25T12:01:05.160Z,37.38
2023-03-25T12:03:33.770Z,36.91
2023-03-25T12:06:06.918Z,36.16
2023-03-25T12:08:50.867Z,36.09
2023-03-25T12:11:30.705Z,36.08
2023-03-25T12:14:12.760Z,36.50
2023-03-25T12:16:56.862Z,36.57
2023-03-25T12:19:33.300Z,36.49
2023-03-25T12:22:03.649Z,36.77
2023-03-25T12:24:51.814Z,36.49
2023-03-25T12:27:31.175Z,37.10
2023-03-25T12:30:33.486Z,36.76
2023-03-25T12:33:12.449Z,36.79
2023-03-25T12:35:45.307Z,36.82
2023-03-25T12:38:26.695Z,36.75
2023-03-25T12:41:15.189Z,36.75
2023-03-25T12:43:50.964Z,36.54
2023-03-25T12:46:36.496Z,36.78
2023-03-25T12:49:22.794Z,36.79
2023-03-25T12:52:20.777Z,36.76
2023-03-25T12:54:59.410Z,37.03
2023-03-25T12:57:37.982Z,36.73
2023-03-25T13:00:14.835Z,36.46
2023-03-25T13:03:05.056Z,35.91
2023-03-25T13:05:39.257Z,35.75
2023-03-25T13:08:11.457Z,35.42
2023-03-25T13:10:38.874Z,35.28
2023-03-25T13:13:17.701Z,35.22
2023-03-25T13:15:49.602Z,35.48
2023-03-25T13:18:34.181Z,35.41
2023-03-25T13:21:16.521Z,35.81
2023-03-25T13:23:44.582Z,35.60
2023-03-25T13:26:18.320Z,35.83
2023-03-25T13:28:50.571Z,35.98
2023-03-25T13:31:23.020Z,36.30
2023-03-25T13:34:02.462Z,36.44
2023-03-25T13:36:35.785Z,36.63
2023-03-25T13:39:10.375Z,36.48
2023-03-25T13:41:50.677Z,36.33
2023-03-25T13:44:30.604Z,36.06
2023-03-25T13:47:06.675Z,36.19
2023-03-25T13:49:48.238Z,36.02
2023-03-25T13:52:15.037Z,36.22
2023-03-25T13:54:52.234Z,36.01
2023-03-25T13:57:38.140Z,36.23
2023-03-25T14:00:12.441Z,36.08
2023-03-25T14:03:00.542Z,35.74
2023-03-25T14:05:52.763Z,35.64
2023-03-25T14:08:38.521Z,36.00
2023-03-25T14:11:23.861Z,35.95
2023-03-25T14:13:55.440Z,35.96
2023-03-25T14:16:27.796Z,36.02
2023-03-25T14:19:07.530Z,36.39
2023-03-25T14:21:40.185Z,36.26
2023-03-25T14:24:33.377Z,35.88
2023-03-25T14:27:02.936Z,36.02
2023-03-25T14:29:32.389Z,35.79
2023-03-25T14:32:06.462Z,35.45
2023-03-25T14:34:33.306Z,36.05
2023-03-25T14:37:03.105Z,35.57
2023-03-25T14:39:29.867Z,35.69
2023-03-25T14:42:28.593Z,35.43
2023-03-25T14:45:33.146Z,35.25
2023-03-25T14:48:00.668Z,35.38
2023-03-25T14:50:30.366Z,35.14
2023-03-25T14:52:58.478Z,35.16
2023-03-25T14:55:31.970Z,35.29
2023-03-25T14:58:04.253Z,34.78
2023-03-25T15:00:34.288Z,34.70
2023-03-25T15:03:08.856Z,35.41
2023-03-25T15:05:36.031Z,35.69
2023-03-25T15:08:07.271Z,35.51
2023-03-25T15:10:40.633Z,35.29
2023-03-25T15:13:10.414Z,36.04
2023-03-25T15:16:01.758Z,35.90
2023-03-25T15:18:32.108Z,35.89
2023-03-25T15:21:10.171Z,36.20
2023-03-25T15:23:59.887Z,36.13
2023-03-25T15:26:40.459Z,36.42
2023-03-25T15:29:46.742Z,36.40
2023-03-25T15:32:35.093Z,36.39
2023-03-25T15:35:19.843Z,36.63
2023-03-25T15:38:14.013Z,36.74
2023-03-25T15:41:11.885Z,36.82
2023-03-25T15:44:01.425Z,36.85
2023-03-25T15:46:50.602Z,36.92
2023-03-25T15:49:20.787Z,36.79
2023-03-25T15:52:00.595Z,37.01
2023-03-25T15:54:30.989Z,36.94
2023-03-25T15:57:26.735Z,37.03
2023-03-25T16:00:33.242Z,37.07
2023-03-25T16:03:06.565Z,37.06
2023-03-25T16:05:35.704Z,37.41
2023-03-25T16:08:34.128Z,37.69
2023-03-25T16:11:25.965Z,37.58
2023-03-25T16:14:12.549Z,37.56
2023-03-25T16:16:41.918Z,37.48
2023-03-25T16:19:11.844Z,37.75
2023-03-25T16:21:38.643Z,37.93
2023-03-25T16:24:07.811Z,37.82
2023-03-25T16:26:35.372Z,37.60
2023-03-25T16:29:17.938Z,37.36
2023-03-25T16:32:17.645Z,37.79
2023-03-25T16:34:44.855Z,37.35
2023-03-25T16:37:14.907Z,37.48
2023-03-25T16:39:42.040Z,37.62
2023-03-25T16:42:19.747Z,37.75
2023-03-25T16:44:47.056Z,37.90
2023-03-25T16:47:14.386Z,38.21
2023-03-25T16:49:42.237Z,38.08
2023-03-25T16:52:15.369Z,38.03
2023-03-25T16:54:48.831Z,38.28
2023-03-25T16:57:27.273Z,38.02
2023-03-25T16:59:54.906Z,38.01
2023-03-25T17:02:31.824Z,38.17
2023-03-25T17:05:25.756Z,38.31
2023-03-25T17:08:11.166Z,38.53
2023-03-25T17:10:49.543Z,38.24
2023-03-25T17:13:24.844Z,38.41
2023-03-25T17:15:52.211Z,38.59
2023-03-25T17:18:19.189Z,38.76
2023-03-25T17:20:47.579Z,38.62
2023-03-25T17:23:17.475Z,38.62
2023-03-25T17:25:57.690Z,38.68
2023-03-25T17:28:46.905Z,38.99
2023-03-25T17:31:18.361Z,38.80
2023-03-25T17:33:50.075Z,38.94
2023-03-25T17:36:17.325Z,38.91
2023-03-25T17:38:45.469Z,38.63
2023-03-25T17:41:13.300Z,38.96
2023-03-25T17:43:51.244Z,39.27
2023-03-25T17:46:26.236Z,39.18
2023-03-25T17:48:57.715Z,39.24
2023-03-25T17:51:29.675Z,39.33
2023-03-25T17:53:56.578Z,39.12
2023-03-25T17:56:25.500Z,39.15
2023-03-25T17:59:00.509Z,39.35
2023-03-25T18:01:27.921Z,39.24
2023-03-25T18:03:54.985Z,39.37
2023-03-25T18:06:22.209Z,39.55
2023-03-25T18:08:49.512Z,39.34
2023-03-25T18:11:16.669Z,39.48
2023-03-25T18:13:47.899Z,39.42
2023-03-25T18:16:16.271Z,39.31
2023-03-25T18:18:43.183Z,39.46
2023-03-25T18:21:13.930Z,39.41
2023-03-25T18:23:41.069Z,39.75
2023-03-25T18:26:16.218Z,39.82
2023-03-25T18:28:43.768Z,39.52
2023-03-25T18:31:17.088Z,39.71
2023-03-25T18:33:44.828Z,39.52
2023-03-25T18:36:12.008Z,40.04
2023-03-25T18:38:39.005Z,39.70
2023-03-25T18:41:06.703Z,39.94
2023-03-25T18:43:33.493Z,40.08
2023-03-25T18:46:00.659Z,39.93
2023-03-25T18:48:27.429Z,39.73
2023-03-25T18:50:56.063Z,40.07
2023-03-25T18:53:24.609Z,40.12
2023-03-25T18:55:51.873Z,40.13
2023-03-25T18:58:20.437Z,39.83
2023-03-25T19:00:47.728Z,39.88
2023-03-25T19:03:17.595Z,40.23
2023-03-25T19:05:44.857Z,40.04
2023-03-25T19:08:19.224Z,40.01
2023-03-25T19:10:46.831Z,40.36
2023-03-25T19:13:13.878Z,40.14
2023-03-25T19:15:41.158Z,40.04
2023-03-25T19:18:08.074Z,40.20
2023-03-25T19:20:35.936Z,40.31
2023-03-25T19:23:03.635Z,40.25
2023-03-25T19:25:30.852Z,40.13
2023-03-25T19:27:57.653Z,40.46
2023-03-25T19:30:25.079Z,40.29
2023-03-25T19:32:54.070Z,40.39
2023-03-25T19:35:21.545Z,40.39
2023-03-25T19:37:50.798Z,40.27
2023-03-25T19:40:20.226Z,40.27
2023-03-25T19:42:47.843Z,40.36
2023-03-25T19:45:15.601Z,40.25
2023-03-25T19:47:42.805Z,40.19
2023-03-25T19:50:10.986Z,40.47
2023-03-25T19:52:38.025Z,39.97
2023-03-25T19:55:05.823Z,40.43
2023-03-25T19:57:32.837Z,40.43
2023-03-25T20:00:01.391Z,40.55
2023-03-25T20:02:28.279Z,40.53
2023-03-25T20:04:56.158Z,40.61
2023-03-25T20:07:26.181Z,40.27
2023-03-25T20:09:53.259Z,40.37
2023-03-25T20:12:20.213Z,40.27
2023-03-25T20:14:48.203Z,40.31
2023-03-25T20:17:14.995Z,40.12
2023-03-25T20:19:42.010Z,40.12
2023-03-25T20:22:18.502Z,40.26
2023-03-25T20:24:51.758Z,40.24
2023-03-25T20:27:18.579Z,40.19
2023-03-25T20:29:45.782Z,40.23
2023-03-25T20:32:12.552Z,40.14
2023-03-25T20:34:39.903Z,40.32
2023-03-25T20:37:06.845Z,40.07
2023-03-25T20:39:33.944Z,40.35
2023-03-25T20:42:00.793Z,40.07
2023-03-25T20:44:28.004Z,40.34
2023-03-25T20:46:54.923Z,40.36
2023-03-25T20:49:22.280Z,40.16
2023-03-25T20:51:50.926Z,40.27
2023-03-25T20:54:18.062Z,40.53
2023-03-25T20:56:46.524Z,40.36
2023-03-25T20:59:17.914Z,40.39
2023-03-25T21:01:45.310Z,40.72
2023-03-25T21:04:13.693Z,40.35
2023-03-25T21:06:40.532Z,40.51
2023-03-25T21:09:09.949Z,40.26
2023-03-25T21:11:37.558Z,40.56
2023-03-25T21:14:04.818Z,40.57
2023-03-25T21:16:32.028Z,40.61
2023-03-25T21:19:01.983Z,40.42
2023-03-25T21:21:29.592Z,40.59
2023-03-25T21:23:56.977Z,40.68
2023-03-25T21:26:24.089Z,40.70
2023-03-25T21:28:51.198Z,40.91
2023-03-25T21:31:21.639Z,40.70
2023-03-25T21:33:51.329Z,40.55
2023-03-25T21:36:24.434Z,40.77
2023-03-25T21:38:54.936Z,40.79
2023-03-25T21:41:21.793Z,40.89
2023-03-25T21:43:49.358Z,40.51
2023-03-25T21:46:16.240Z,40.83
2023-03-25T21:48:48.579Z,40.68
2023-03-25T21:51:15.375Z,40.71
2023-03-25T21:53:46.465Z,40.80
2023-03-25T21:56:17.932Z,40.81
2023-03-25T21:58:45.075Z,40.76
2023-03-25T22:01:16.948Z,40.58
2023-03-25T22:03:46.419Z,40.76
2023-03-25T22:06:18.239Z,40.87
2023-03-25T22:08:45.476Z,40.77
2023-03-25T22:11:17.282Z,40.65
2023-03-25T22:13:44.609Z,40.77
2023-03-25T22:16:12.681Z,40.88
2023-03-25T22:18:40.052Z,40.62
2023-03-25T22:21:21.060Z,40.91
2023-03-25T22:23:49.130Z,40.81
2023-03-25T22:26:17.051Z,41.08
2023-03-25T22:28:44.370Z,40.85
2023-03-25T22:31:18.568Z,41.00
2023-03-25T22:33:45.941Z,40.89
2023-03-25T22:36:14.261Z,40.69
2023-03-25T22:38:43.645Z,41.02
2023-03-25T22:41:11.078Z,41.02
2023-03-25T22:43:38.292Z,40.93
2023-03-25T22:46:05.883Z,40.97
2023-03-25T22:48:33.138Z,41.27
2023-03-25T22:51:00.380Z,41.10
2023-03-25T22:53:27.825Z,40.98
2023-03-25T22:55:55.896Z,41.01
2023-03-25T22:58:27.133Z,41.09
2023-03-25T23:00:54.482Z,41.31
2023-03-25T23:03:22.203Z,41.06
2023-03-25T23:06:03.837Z,41.12
2023-03-25T23:08:32.533Z,41.32
2023-03-25T23:11:00.320Z,41.22
2023-03-25T23:13:27.760Z,41.11
2023-03-25T23:16:02.177Z,40.96
2023-03-25T23:18:30.635Z,41.35
2023-03-25T23:20:57.532Z,41.38
2023-03-25T23:23:24.650Z,41.27
2023-03-25T23:26:08.478Z,41.24
2023-03-25T23:28:36.746Z,41.53
2023-03-25T23:31:08.258Z,41.44
2023-03-25T23:33:35.472Z,41.24
2023-03-25T23:36:02.760Z,41.61
2023-03-25T23:38:29.999Z,41.53
2023-03-25T23:41:07.197Z,41.85
2023-03-25T23:43:34.454Z,41.49
2023-03-25T23:46:01.290Z,41.58
2023-03-25T23:48:28.575Z,41.51
2023-03-25T23:50:56.646Z,41.55
2023-03-25T23:53:24.594Z,41.57
2023-03-25T23:55:53.523Z,41.58
2023-03-25T23:58:23.205Z,41.57
